sensor_id;sensor_type;location;lat;lon;timestamp;P1;durP1;ratioP1;P2;durP2;ratioP2
75216;SDS011;63800;51.972;5.682;2023-06-22T00:01:55;8.15;;;5.47;;
75216;SDS011;63800;51.972;5.682;2023-06-22T00:04:20;8.27;;;5.15;;
75216;SDS011;63800;51.972;5.682;2023-06-22T00:06:46;7.63;;;5.05;;
75216;SDS011;63800;51.972;5.682;2023-06-22T00:09:11;9.40;;;5.22;;
75216;SDS011;63800;51.972;5.682;2023-06-22T00:11:37;7.35;;;5.22;;
75216;SDS011;63800;51.972;5.682;2023-06-22T00:14:03;7.97;;;5.20;;
75216;SDS011;63800;51.972;5.682;2023-06-22T00:16:30;6.47;;;4.18;;
75216;SDS011;63800;51.972;5.682;2023-06-22T00:18:58;6.22;;;4.50;;
75216;SDS011;63800;51.972;5.682;2023-06-22T00:21:28;6.47;;;4.55;;
75216;SDS011;63800;51.972;5.682;2023-06-22T00:23:54;6.90;;;4.38;;
75216;SDS011;63800;51.972;5.682;2023-06-22T00:26:20;6.57;;;4.47;;
75216;SDS011;63800;51.972;5.682;2023-06-22T00:28:46;7.38;;;4.80;;
75216;SDS011;63800;51.972;5.682;2023-06-22T00:31:12;6.95;;;4.78;;
75216;SDS011;63800;51.972;5.682;2023-06-22T00:33:37;6.53;;;4.38;;
75216;SDS011;63800;51.972;5.682;2023-06-22T00:36:03;7.45;;;4.60;;
75216;SDS011;63800;51.972;5.682;2023-06-22T00:38:29;7.45;;;4.10;;
75216;SDS011;63800;51.972;5.682;2023-06-22T00:40:54;6.60;;;3.90;;
75216;SDS011;63800;51.972;5.682;2023-06-22T00:43:20;7.28;;;4.13;;
75216;SDS011;63800;51.972;5.682;2023-06-22T00:45:45;6.38;;;4.10;;
75216;SDS011;63800;51.972;5.682;2023-06-22T00:48:12;6.38;;;4.20;;
75216;SDS011;63800;51.972;5.682;2023-06-22T00:50:38;4.80;;;3.78;;
75216;SDS011;63800;51.972;5.682;2023-06-22T00:53:05;5.28;;;3.88;;
75216;SDS011;63800;51.972;5.682;2023-06-22T00:55:36;6.63;;;4.00;;
75216;SDS011;63800;51.972;5.682;2023-06-22T00:58:04;6.65;;;4.13;;
75216;SDS011;63800;51.972;5.682;2023-06-22T01:00:33;8.63;;;4.47;;
75216;SDS011;63800;51.972;5.682;2023-06-22T01:02:59;6.95;;;4.32;;
75216;SDS011;63800;51.972;5.682;2023-06-22T01:05:24;6.47;;;4.45;;
75216;SDS011;63800;51.972;5.682;2023-06-22T01:10:39;6.30;;;3.95;;
75216;SDS011;63800;51.972;5.682;2023-06-22T01:13:16;8.55;;;5.05;;
75216;SDS011;63800;51.972;5.682;2023-06-22T01:15:53;8.07;;;4.57;;
75216;SDS011;63800;51.972;5.682;2023-06-22T01:18:24;6.00;;;4.63;;
75216;SDS011;63800;51.972;5.682;2023-06-22T01:20:53;6.00;;;4.22;;
75216;SDS011;63800;51.972;5.682;2023-06-22T01:28:55;6.85;;;4.70;;
75216;SDS011;63800;51.972;5.682;2023-06-22T01:31:26;6.38;;;4.63;;
75216;SDS011;63800;51.972;5.682;2023-06-22T01:33:55;7.97;;;5.07;;
75216;SDS011;63800;51.972;5.682;2023-06-22T01:36:24;7.50;;;5.07;;
75216;SDS011;63800;51.972;5.682;2023-06-22T01:38:50;7.50;;;4.53;;
75216;SDS011;63800;51.972;5.682;2023-06-22T01:41:17;8.15;;;4.88;;
75216;SDS011;63800;51.972;5.682;2023-06-22T01:43:45;6.13;;;4.60;;
75216;SDS011;63800;51.972;5.682;2023-06-22T01:46:12;7.00;;;4.53;;
75216;SDS011;63800;51.972;5.682;2023-06-22T01:48:39;6.40;;;4.75;;
75216;SDS011;63800;51.972;5.682;2023-06-22T01:51:05;6.50;;;4.68;;
75216;SDS011;63800;51.972;5.682;2023-06-22T01:53:31;7.15;;;5.10;;
75216;SDS011;63800;51.972;5.682;2023-06-22T01:55:56;8.35;;;4.97;;
75216;SDS011;63800;51.972;5.682;2023-06-22T01:58:23;7.15;;;4.78;;
75216;SDS011;63800;51.972;5.682;2023-06-22T02:00:56;7.75;;;5.05;;
75216;SDS011;63800;51.972;5.682;2023-06-22T02:03:34;7.85;;;5.35;;
75216;SDS011;63800;51.972;5.682;2023-06-22T02:06:15;8.18;;;5.65;;
75216;SDS011;63800;51.972;5.682;2023-06-22T02:08:48;9.73;;;5.30;;
75216;SDS011;63800;51.972;5.682;2023-06-22T02:11:16;10.50;;;4.97;;
75216;SDS011;63800;51.972;5.682;2023-06-22T02:13:45;9.13;;;5.25;;
75216;SDS011;63800;51.972;5.682;2023-06-22T02:16:11;8.77;;;5.57;;
75216;SDS011;63800;51.972;5.682;2023-06-22T02:18:38;7.32;;;4.88;;
75216;SDS011;63800;51.972;5.682;2023-06-22T02:21:05;7.07;;;5.00;;
75216;SDS011;63800;51.972;5.682;2023-06-22T02:23:30;9.77;;;5.13;;
75216;SDS011;63800;51.972;5.682;2023-06-22T02:25:58;8.40;;;5.18;;
75216;SDS011;63800;51.972;5.682;2023-06-22T02:28:23;6.95;;;5.35;;
75216;SDS011;63800;51.972;5.682;2023-06-22T02:30:48;8.63;;;5.38;;
75216;SDS011;63800;51.972;5.682;2023-06-22T02:33:14;7.75;;;4.85;;
75216;SDS011;63800;51.972;5.682;2023-06-22T02:35:39;8.57;;;5.50;;
75216;SDS011;63800;51.972;5.682;2023-06-22T02:38:10;9.75;;;5.70;;
75216;SDS011;63800;51.972;5.682;2023-06-22T02:40:35;8.27;;;5.78;;
75216;SDS011;63800;51.972;5.682;2023-06-22T02:43:01;8.43;;;6.20;;
75216;SDS011;63800;51.972;5.682;2023-06-22T02:45:27;9.57;;;5.60;;
75216;SDS011;63800;51.972;5.682;2023-06-22T02:47:53;7.45;;;5.13;;
75216;SDS011;63800;51.972;5.682;2023-06-22T02:50:19;10.05;;;5.70;;
75216;SDS011;63800;51.972;5.682;2023-06-22T02:52:44;8.98;;;5.90;;
75216;SDS011;63800;51.972;5.682;2023-06-22T02:55:09;10.82;;;6.07;;
75216;SDS011;63800;51.972;5.682;2023-06-22T02:57:35;9.95;;;5.95;;
75216;SDS011;63800;51.972;5.682;2023-06-22T03:00:02;8.77;;;5.78;;
75216;SDS011;63800;51.972;5.682;2023-06-22T03:02:37;9.07;;;6.35;;
75216;SDS011;63800;51.972;5.682;2023-06-22T03:05:03;9.35;;;6.05;;
75216;SDS011;63800;51.972;5.682;2023-06-22T03:07:29;9.20;;;5.80;;
75216;SDS011;63800;51.972;5.682;2023-06-22T03:09:55;11.85;;;6.32;;
75216;SDS011;63800;51.972;5.682;2023-06-22T03:12:20;7.82;;;5.60;;
75216;SDS011;63800;51.972;5.682;2023-06-22T03:14:46;10.32;;;6.15;;
75216;SDS011;63800;51.972;5.682;2023-06-22T03:17:11;8.23;;;5.78;;
75216;SDS011;63800;51.972;5.682;2023-06-22T03:19:36;10.18;;;5.68;;
75216;SDS011;63800;51.972;5.682;2023-06-22T03:22:02;8.95;;;6.18;;
75216;SDS011;63800;51.972;5.682;2023-06-22T03:24:28;10.55;;;6.25;;
75216;SDS011;63800;51.972;5.682;2023-06-22T03:26:54;10.05;;;6.50;;
75216;SDS011;63800;51.972;5.682;2023-06-22T03:29:20;9.52;;;6.20;;
75216;SDS011;63800;51.972;5.682;2023-06-22T03:31:45;10.07;;;6.20;;
75216;SDS011;63800;51.972;5.682;2023-06-22T03:34:11;9.30;;;6.05;;
75216;SDS011;63800;51.972;5.682;2023-06-22T03:36:36;9.57;;;6.05;;
75216;SDS011;63800;51.972;5.682;2023-06-22T03:39:02;10.55;;;6.75;;
75216;SDS011;63800;51.972;5.682;2023-06-22T03:41:27;11.45;;;6.90;;
75216;SDS011;63800;51.972;5.682;2023-06-22T03:43:53;10.82;;;6.68;;
75216;SDS011;63800;51.972;5.682;2023-06-22T03:46:18;11.35;;;6.95;;
75216;SDS011;63800;51.972;5.682;2023-06-22T03:48:45;9.95;;;6.07;;
75216;SDS011;63800;51.972;5.682;2023-06-22T03:51:10;9.15;;;6.15;;
75216;SDS011;63800;51.972;5.682;2023-06-22T03:53:35;10.13;;;6.43;;
75216;SDS011;63800;51.972;5.682;2023-06-22T03:56:01;9.02;;;6.38;;
75216;SDS011;63800;51.972;5.682;2023-06-22T03:58:26;11.65;;;6.80;;
75216;SDS011;63800;51.972;5.682;2023-06-22T04:00:57;9.82;;;6.72;;
75216;SDS011;63800;51.972;5.682;2023-06-22T04:03:23;10.73;;;7.45;;
75216;SDS011;63800;51.972;5.682;2023-06-22T04:05:48;11.18;;;7.50;;
75216;SDS011;63800;51.972;5.682;2023-06-22T04:08:14;12.88;;;7.97;;
75216;SDS011;63800;51.972;5.682;2023-06-22T04:10:39;10.23;;;6.78;;
75216;SDS011;63800;51.972;5.682;2023-06-22T04:13:05;11.82;;;7.55;;
75216;SDS011;63800;51.972;5.682;2023-06-22T04:15:31;10.45;;;7.18;;
75216;SDS011;63800;51.972;5.682;2023-06-22T04:17:56;13.55;;;7.88;;
75216;SDS011;63800;51.972;5.682;2023-06-22T04:20:22;13.43;;;8.30;;
75216;SDS011;63800;51.972;5.682;2023-06-22T04:22:52;13.60;;;8.38;;
75216;SDS011;63800;51.972;5.682;2023-06-22T04:25:18;13.48;;;8.30;;
75216;SDS011;63800;51.972;5.682;2023-06-22T04:27:44;12.88;;;8.18;;
75216;SDS011;63800;51.972;5.682;2023-06-22T04:30:11;12.30;;;7.82;;
75216;SDS011;63800;51.972;5.682;2023-06-22T04:32:37;11.65;;;8.18;;
75216;SDS011;63800;51.972;5.682;2023-06-22T04:35:03;12.82;;;8.65;;
75216;SDS011;63800;51.972;5.682;2023-06-22T04:37:32;15.68;;;9.70;;
75216;SDS011;63800;51.972;5.682;2023-06-22T04:39:58;14.35;;;8.98;;
75216;SDS011;63800;51.972;5.682;2023-06-22T04:42:25;13.57;;;8.80;;
75216;SDS011;63800;51.972;5.682;2023-06-22T04:44:51;14.75;;;9.63;;
75216;SDS011;63800;51.972;5.682;2023-06-22T04:47:17;16.08;;;10.85;;
75216;SDS011;63800;51.972;5.682;2023-06-22T04:49:42;14.90;;;10.45;;
75216;SDS011;63800;51.972;5.682;2023-06-22T04:52:09;15.88;;;10.45;;
75216;SDS011;63800;51.972;5.682;2023-06-22T04:54:37;19.90;;;11.85;;
75216;SDS011;63800;51.972;5.682;2023-06-22T04:57:04;18.55;;;11.63;;
75216;SDS011;63800;51.972;5.682;2023-06-22T04:59:35;21.08;;;13.55;;
75216;SDS011;63800;51.972;5.682;2023-06-22T05:02:04;23.23;;;12.82;;
75216;SDS011;63800;51.972;5.682;2023-06-22T05:04:30;20.55;;;12.85;;
75216;SDS011;63800;51.972;5.682;2023-06-22T05:06:56;22.42;;;14.30;;
75216;SDS011;63800;51.972;5.682;2023-06-22T05:09:23;20.02;;;13.73;;
75216;SDS011;63800;51.972;5.682;2023-06-22T05:11:49;25.17;;;15.23;;
75216;SDS011;63800;51.972;5.682;2023-06-22T05:14:15;24.25;;;15.00;;
75216;SDS011;63800;51.972;5.682;2023-06-22T05:16:41;23.83;;;15.52;;
75216;SDS011;63800;51.972;5.682;2023-06-22T05:19:07;23.48;;;15.45;;
75216;SDS011;63800;51.972;5.682;2023-06-22T05:21:33;25.13;;;15.73;;
75216;SDS011;63800;51.972;5.682;2023-06-22T05:23:58;23.83;;;14.80;;
75216;SDS011;63800;51.972;5.682;2023-06-22T05:26:28;22.92;;;15.10;;
75216;SDS011;63800;51.972;5.682;2023-06-22T05:28:55;24.60;;;14.82;;
75216;SDS011;63800;51.972;5.682;2023-06-22T05:31:21;25.08;;;16.00;;
75216;SDS011;63800;51.972;5.682;2023-06-22T05:33:47;26.52;;;16.17;;
75216;SDS011;63800;51.972;5.682;2023-06-22T05:36:13;23.63;;;15.25;;
75216;SDS011;63800;51.972;5.682;2023-06-22T05:38:39;23.85;;;16.13;;
75216;SDS011;63800;51.972;5.682;2023-06-22T05:41:06;24.38;;;15.68;;
75216;SDS011;63800;51.972;5.682;2023-06-22T05:43:33;24.17;;;14.77;;
75216;SDS011;63800;51.972;5.682;2023-06-22T05:45:59;23.70;;;15.27;;
75216;SDS011;63800;51.972;5.682;2023-06-22T05:48:25;25.92;;;16.48;;
75216;SDS011;63800;51.972;5.682;2023-06-22T05:50:51;21.73;;;14.27;;
75216;SDS011;63800;51.972;5.682;2023-06-22T05:53:16;23.48;;;15.50;;
75216;SDS011;63800;51.972;5.682;2023-06-22T05:55:42;23.95;;;15.50;;
75216;SDS011;63800;51.972;5.682;2023-06-22T05:58:07;23.33;;;14.88;;
75216;SDS011;63800;51.972;5.682;2023-06-22T06:00:33;25.20;;;15.18;;
75216;SDS011;63800;51.972;5.682;2023-06-22T06:02:59;21.20;;;14.32;;
75216;SDS011;63800;51.972;5.682;2023-06-22T06:05:34;18.88;;;13.23;;
75216;SDS011;63800;51.972;5.682;2023-06-22T06:08:01;22.45;;;14.57;;
75216;SDS011;63800;51.972;5.682;2023-06-22T06:10:27;21.83;;;14.65;;
75216;SDS011;63800;51.972;5.682;2023-06-22T06:12:54;19.88;;;13.82;;
75216;SDS011;63800;51.972;5.682;2023-06-22T06:15:20;22.67;;;13.50;;
75216;SDS011;63800;51.972;5.682;2023-06-22T06:17:49;22.40;;;13.65;;
75216;SDS011;63800;51.972;5.682;2023-06-22T06:20:18;19.88;;;14.00;;
75216;SDS011;63800;51.972;5.682;2023-06-22T06:22:45;19.98;;;13.65;;
75216;SDS011;63800;51.972;5.682;2023-06-22T06:25:11;20.20;;;13.05;;
75216;SDS011;63800;51.972;5.682;2023-06-22T06:27:41;18.88;;;12.25;;
75216;SDS011;63800;51.972;5.682;2023-06-22T06:30:16;21.10;;;13.23;;
75216;SDS011;63800;51.972;5.682;2023-06-22T06:32:43;19.50;;;13.35;;
75216;SDS011;63800;51.972;5.682;2023-06-22T06:35:10;19.40;;;13.55;;
75216;SDS011;63800;51.972;5.682;2023-06-22T06:37:37;20.10;;;12.98;;
75216;SDS011;63800;51.972;5.682;2023-06-22T06:40:05;17.08;;;11.80;;
75216;SDS011;63800;51.972;5.682;2023-06-22T06:42:35;19.70;;;12.75;;
75216;SDS011;63800;51.972;5.682;2023-06-22T06:45:03;17.33;;;11.85;;
75216;SDS011;63800;51.972;5.682;2023-06-22T06:47:30;16.63;;;11.05;;
75216;SDS011;63800;51.972;5.682;2023-06-22T06:49:55;19.63;;;11.93;;
75216;SDS011;63800;51.972;5.682;2023-06-22T06:52:21;16.27;;;11.70;;
75216;SDS011;63800;51.972;5.682;2023-06-22T06:54:46;17.13;;;10.77;;
75216;SDS011;63800;51.972;5.682;2023-06-22T06:57:11;16.63;;;10.82;;
75216;SDS011;63800;51.972;5.682;2023-06-22T06:59:38;17.27;;;11.32;;
75216;SDS011;63800;51.972;5.682;2023-06-22T07:02:04;13.57;;;9.43;;
75216;SDS011;63800;51.972;5.682;2023-06-22T07:04:30;14.98;;;9.75;;
75216;SDS011;63800;51.972;5.682;2023-06-22T07:06:55;13.85;;;9.18;;
75216;SDS011;63800;51.972;5.682;2023-06-22T07:09:20;13.43;;;9.00;;
75216;SDS011;63800;51.972;5.682;2023-06-22T07:11:46;12.77;;;8.80;;
75216;SDS011;63800;51.972;5.682;2023-06-22T07:14:11;11.48;;;7.63;;
75216;SDS011;63800;51.972;5.682;2023-06-22T07:16:37;12.38;;;9.07;;
75216;SDS011;63800;51.972;5.682;2023-06-22T07:19:02;11.77;;;8.82;;
75216;SDS011;63800;51.972;5.682;2023-06-22T07:21:27;14.05;;;9.65;;
75216;SDS011;63800;51.972;5.682;2023-06-22T07:23:53;13.18;;;9.13;;
75216;SDS011;63800;51.972;5.682;2023-06-22T07:26:19;11.07;;;8.15;;
75216;SDS011;63800;51.972;5.682;2023-06-22T07:28:45;14.00;;;8.90;;
75216;SDS011;63800;51.972;5.682;2023-06-22T07:31:10;11.10;;;8.13;;
75216;SDS011;63800;51.972;5.682;2023-06-22T07:33:36;12.48;;;8.07;;
75216;SDS011;63800;51.972;5.682;2023-06-22T07:36:01;10.85;;;8.00;;
75216;SDS011;63800;51.972;5.682;2023-06-22T07:38:32;12.70;;;8.57;;
75216;SDS011;63800;51.972;5.682;2023-06-22T07:40:58;10.27;;;6.45;;
75216;SDS011;63800;51.972;5.682;2023-06-22T07:43:23;12.10;;;7.00;;
75216;SDS011;63800;51.972;5.682;2023-06-22T07:45:49;11.10;;;7.38;;
75216;SDS011;63800;51.972;5.682;2023-06-22T07:48:21;11.13;;;7.05;;
75216;SDS011;63800;51.972;5.682;2023-06-22T07:50:47;8.95;;;6.38;;
75216;SDS011;63800;51.972;5.682;2023-06-22T07:53:12;10.73;;;6.90;;
75216;SDS011;63800;51.972;5.682;2023-06-22T07:55:38;7.78;;;6.22;;
75216;SDS011;63800;51.972;5.682;2023-06-22T07:58:03;9.60;;;6.15;;
75216;SDS011;63800;51.972;5.682;2023-06-22T08:00:29;8.32;;;6.50;;
75216;SDS011;63800;51.972;5.682;2023-06-22T08:02:54;7.32;;;5.28;;
75216;SDS011;63800;51.972;5.682;2023-06-22T08:05:20;6.90;;;5.40;;
75216;SDS011;63800;51.972;5.682;2023-06-22T08:07:45;9.20;;;6.05;;
75216;SDS011;63800;51.972;5.682;2023-06-22T08:10:11;8.45;;;5.72;;
75216;SDS011;63800;51.972;5.682;2023-06-22T08:12:38;8.82;;;6.10;;
75216;SDS011;63800;51.972;5.682;2023-06-22T08:15:06;9.57;;;6.65;;
75216;SDS011;63800;51.972;5.682;2023-06-22T08:17:36;8.32;;;6.28;;
75216;SDS011;63800;51.972;5.682;2023-06-22T08:20:02;9.27;;;5.75;;
75216;SDS011;63800;51.972;5.682;2023-06-22T08:22:34;6.20;;;5.30;;
75216;SDS011;63800;51.972;5.682;2023-06-22T08:25:01;6.90;;;5.45;;
75216;SDS011;63800;51.972;5.682;2023-06-22T08:27:26;7.70;;;5.65;;
75216;SDS011;63800;51.972;5.682;2023-06-22T08:29:53;6.70;;;5.45;;
75216;SDS011;63800;51.972;5.682;2023-06-22T08:32:23;8.75;;;6.50;;
75216;SDS011;63800;51.972;5.682;2023-06-22T08:34:48;9.10;;;6.50;;
75216;SDS011;63800;51.972;5.682;2023-06-22T08:37:14;8.18;;;5.90;;
75216;SDS011;63800;51.972;5.682;2023-06-22T08:39:39;8.13;;;6.05;;
75216;SDS011;63800;51.972;5.682;2023-06-22T08:42:05;8.38;;;6.18;;
75216;SDS011;63800;51.972;5.682;2023-06-22T08:44:31;7.05;;;5.78;;
75216;SDS011;63800;51.972;5.682;2023-06-22T08:46:57;7.30;;;5.38;;
75216;SDS011;63800;51.972;5.682;2023-06-22T08:49:22;8.98;;;6.05;;
75216;SDS011;63800;51.972;5.682;2023-06-22T08:51:47;6.72;;;5.47;;
75216;SDS011;63800;51.972;5.682;2023-06-22T08:54:14;8.35;;;5.72;;
75216;SDS011;63800;51.972;5.682;2023-06-22T08:56:40;6.07;;;4.72;;
75216;SDS011;63800;51.972;5.682;2023-06-22T08:59:05;7.43;;;5.15;;
75216;SDS011;63800;51.972;5.682;2023-06-22T09:01:32;7.53;;;5.40;;
75216;SDS011;63800;51.972;5.682;2023-06-22T09:03:58;6.47;;;4.80;;
75216;SDS011;63800;51.972;5.682;2023-06-22T09:06:24;5.70;;;5.07;;
75216;SDS011;63800;51.972;5.682;2023-06-22T09:08:50;5.60;;;4.63;;
75216;SDS011;63800;51.972;5.682;2023-06-22T09:11:16;6.53;;;4.60;;
75216;SDS011;63800;51.972;5.682;2023-06-22T09:13:41;6.93;;;5.15;;
75216;SDS011;63800;51.972;5.682;2023-06-22T09:16:07;5.15;;;4.60;;
75216;SDS011;63800;51.972;5.682;2023-06-22T09:18:36;6.07;;;4.68;;
75216;SDS011;63800;51.972;5.682;2023-06-22T09:21:01;8.60;;;4.45;;
75216;SDS011;63800;51.972;5.682;2023-06-22T09:23:27;6.25;;;4.57;;
75216;SDS011;63800;51.972;5.682;2023-06-22T09:25:52;6.13;;;4.10;;
75216;SDS011;63800;51.972;5.682;2023-06-22T09:28:18;6.82;;;4.30;;
75216;SDS011;63800;51.972;5.682;2023-06-22T09:30:43;5.53;;;4.18;;
75216;SDS011;63800;51.972;5.682;2023-06-22T09:33:09;4.90;;;3.80;;
75216;SDS011;63800;51.972;5.682;2023-06-22T09:35:35;5.70;;;4.63;;
75216;SDS011;63800;51.972;5.682;2023-06-22T09:38:00;4.63;;;4.10;;
75216;SDS011;63800;51.972;5.682;2023-06-22T09:40:25;4.35;;;3.72;;
75216;SDS011;63800;51.972;5.682;2023-06-22T09:42:51;4.65;;;4.13;;
75216;SDS011;63800;51.972;5.682;2023-06-22T09:45:16;4.90;;;4.20;;
75216;SDS011;63800;51.972;5.682;2023-06-22T09:47:42;5.82;;;3.90;;
75216;SDS011;63800;51.972;5.682;2023-06-22T09:50:07;6.00;;;4.50;;
75216;SDS011;63800;51.972;5.682;2023-06-22T09:52:33;6.45;;;4.03;;
75216;SDS011;63800;51.972;5.682;2023-06-22T09:54:59;6.05;;;4.40;;
75216;SDS011;63800;51.972;5.682;2023-06-22T09:57:24;6.55;;;4.00;;
75216;SDS011;63800;51.972;5.682;2023-06-22T09:59:50;6.28;;;4.18;;
75216;SDS011;63800;51.972;5.682;2023-06-22T10:02:15;5.07;;;4.32;;
75216;SDS011;63800;51.972;5.682;2023-06-22T10:04:41;5.95;;;4.50;;
75216;SDS011;63800;51.972;5.682;2023-06-22T10:07:06;5.30;;;4.47;;
75216;SDS011;63800;51.972;5.682;2023-06-22T10:09:32;6.78;;;4.38;;
75216;SDS011;63800;51.972;5.682;2023-06-22T10:11:58;5.60;;;4.68;;
75216;SDS011;63800;51.972;5.682;2023-06-22T10:14:23;5.60;;;4.45;;
75216;SDS011;63800;51.972;5.682;2023-06-22T10:16:51;5.50;;;4.40;;
75216;SDS011;63800;51.972;5.682;2023-06-22T10:19:17;5.65;;;4.65;;
75216;SDS011;63800;51.972;5.682;2023-06-22T10:21:42;7.72;;;5.22;;
75216;SDS011;63800;51.972;5.682;2023-06-22T10:24:08;5.05;;;4.55;;
75216;SDS011;63800;51.972;5.682;2023-06-22T10:26:34;7.50;;;5.32;;
75216;SDS011;63800;51.972;5.682;2023-06-22T10:29:01;5.82;;;4.68;;
75216;SDS011;63800;51.972;5.682;2023-06-22T10:31:27;6.68;;;4.95;;
75216;SDS011;63800;51.972;5.682;2023-06-22T10:33:53;5.63;;;4.55;;
75216;SDS011;63800;51.972;5.682;2023-06-22T10:36:19;7.18;;;5.38;;
75216;SDS011;63800;51.972;5.682;2023-06-22T10:38:44;6.57;;;4.95;;
75216;SDS011;63800;51.972;5.682;2023-06-22T10:41:10;5.85;;;4.85;;
75216;SDS011;63800;51.972;5.682;2023-06-22T10:43:36;6.57;;;5.55;;
75216;SDS011;63800;51.972;5.682;2023-06-22T10:46:01;6.38;;;5.15;;
75216;SDS011;63800;51.972;5.682;2023-06-22T10:48:26;6.57;;;4.75;;
75216;SDS011;63800;51.972;5.682;2023-06-22T10:50:52;6.50;;;5.15;;
75216;SDS011;63800;51.972;5.682;2023-06-22T10:53:18;7.15;;;5.50;;
75216;SDS011;63800;51.972;5.682;2023-06-22T10:55:44;9.80;;;5.82;;
75216;SDS011;63800;51.972;5.682;2023-06-22T10:58:09;6.68;;;5.88;;
75216;SDS011;63800;51.972;5.682;2023-06-22T11:00:35;7.80;;;5.75;;
75216;SDS011;63800;51.972;5.682;2023-06-22T11:03:00;6.90;;;5.68;;
75216;SDS011;63800;51.972;5.682;2023-06-22T11:05:26;7.82;;;6.60;;
75216;SDS011;63800;51.972;5.682;2023-06-22T11:07:51;7.05;;;6.20;;
75216;SDS011;63800;51.972;5.682;2023-06-22T11:10:16;7.40;;;6.20;;
75216;SDS011;63800;51.972;5.682;2023-06-22T11:12:42;11.00;;;7.00;;
75216;SDS011;63800;51.972;5.682;2023-06-22T11:15:08;8.40;;;6.30;;
75216;SDS011;63800;51.972;5.682;2023-06-22T11:17:34;8.68;;;6.60;;
75216;SDS011;63800;51.972;5.682;2023-06-22T11:20:00;8.70;;;6.22;;
75216;SDS011;63800;51.972;5.682;2023-06-22T11:22:25;7.07;;;6.03;;
75216;SDS011;63800;51.972;5.682;2023-06-22T11:24:51;6.95;;;5.88;;
75216;SDS011;63800;51.972;5.682;2023-06-22T11:27:16;7.53;;;5.85;;
75216;SDS011;63800;51.972;5.682;2023-06-22T11:29:42;7.45;;;6.35;;
75216;SDS011;63800;51.972;5.682;2023-06-22T11:32:08;8.02;;;6.55;;
75216;SDS011;63800;51.972;5.682;2023-06-22T11:34:33;7.63;;;6.47;;
75216;SDS011;63800;51.972;5.682;2023-06-22T11:36:59;8.52;;;7.03;;
75216;SDS011;63800;51.972;5.682;2023-06-22T11:39:25;8.95;;;6.88;;
75216;SDS011;63800;51.972;5.682;2023-06-22T11:41:50;8.95;;;7.13;;
75216;SDS011;63800;51.972;5.682;2023-06-22T11:44:16;9.50;;;8.05;;
75216;SDS011;63800;51.972;5.682;2023-06-22T11:46:41;8.43;;;7.50;;
75216;SDS011;63800;51.972;5.682;2023-06-22T11:49:07;7.82;;;6.88;;
75216;SDS011;63800;51.972;5.682;2023-06-22T11:51:33;8.30;;;6.88;;
75216;SDS011;63800;51.972;5.682;2023-06-22T11:53:58;8.05;;;7.22;;
75216;SDS011;63800;51.972;5.682;2023-06-22T11:56:24;9.00;;;7.05;;
75216;SDS011;63800;51.972;5.682;2023-06-22T11:58:49;9.48;;;8.00;;
75216;SDS011;63800;51.972;5.682;2023-06-22T12:01:14;10.85;;;8.13;;
75216;SDS011;63800;51.972;5.682;2023-06-22T12:03:43;10.52;;;9.43;;
75216;SDS011;63800;51.972;5.682;2023-06-22T12:06:09;11.25;;;9.38;;
75216;SDS011;63800;51.972;5.682;2023-06-22T12:08:34;13.10;;;10.30;;
75216;SDS011;63800;51.972;5.682;2023-06-22T12:11:00;12.85;;;10.57;;
75216;SDS011;63800;51.972;5.682;2023-06-22T12:13:25;13.27;;;11.27;;
75216;SDS011;63800;51.972;5.682;2023-06-22T12:15:51;14.50;;;10.95;;
75216;SDS011;63800;51.972;5.682;2023-06-22T12:18:17;15.40;;;11.90;;
75216;SDS011;63800;51.972;5.682;2023-06-22T12:20:45;14.27;;;11.57;;
75216;SDS011;63800;51.972;5.682;2023-06-22T12:23:11;13.80;;;12.20;;
75216;SDS011;63800;51.972;5.682;2023-06-22T12:25:36;13.85;;;12.32;;
75216;SDS011;63800;51.972;5.682;2023-06-22T12:28:02;14.45;;;12.30;;
75216;SDS011;63800;51.972;5.682;2023-06-22T12:30:29;13.90;;;11.38;;
75216;SDS011;63800;51.972;5.682;2023-06-22T12:32:55;14.82;;;12.07;;
75216;SDS011;63800;51.972;5.682;2023-06-22T12:35:20;14.02;;;12.55;;
75216;SDS011;63800;51.972;5.682;2023-06-22T12:37:46;14.38;;;12.48;;
75216;SDS011;63800;51.972;5.682;2023-06-22T12:40:11;15.65;;;12.60;;
75216;SDS011;63800;51.972;5.682;2023-06-22T12:42:37;15.70;;;13.25;;
75216;SDS011;63800;51.972;5.682;2023-06-22T12:45:03;15.27;;;12.63;;
75216;SDS011;63800;51.972;5.682;2023-06-22T12:47:28;17.27;;;11.63;;
75216;SDS011;63800;51.972;5.682;2023-06-22T12:49:54;16.05;;;12.65;;
75216;SDS011;63800;51.972;5.682;2023-06-22T12:52:19;15.90;;;11.80;;
75216;SDS011;63800;51.972;5.682;2023-06-22T12:54:45;16.88;;;13.10;;
75216;SDS011;63800;51.972;5.682;2023-06-22T12:57:10;79.28;;;20.08;;
75216;SDS011;63800;51.972;5.682;2023-06-22T12:59:36;42.80;;;14.88;;
75216;SDS011;63800;51.972;5.682;2023-06-22T13:02:01;18.60;;;14.68;;
75216;SDS011;63800;51.972;5.682;2023-06-22T13:04:27;34.92;;;16.63;;
75216;SDS011;63800;51.972;5.682;2023-06-22T13:06:52;17.13;;;14.52;;
75216;SDS011;63800;51.972;5.682;2023-06-22T13:09:18;19.15;;;14.45;;
75216;SDS011;63800;51.972;5.682;2023-06-22T13:11:44;30.05;;;15.07;;
75216;SDS011;63800;51.972;5.682;2023-06-22T13:14:09;41.88;;;13.88;;
75216;SDS011;63800;51.972;5.682;2023-06-22T13:16:35;21.15;;;16.27;;
75216;SDS011;63800;51.972;5.682;2023-06-22T13:19:00;19.77;;;15.57;;
75216;SDS011;63800;51.972;5.682;2023-06-22T13:21:26;19.65;;;14.90;;
75216;SDS011;63800;51.972;5.682;2023-06-22T13:23:51;20.00;;;15.82;;
75216;SDS011;63800;51.972;5.682;2023-06-22T13:26:17;21.30;;;15.35;;
75216;SDS011;63800;51.972;5.682;2023-06-22T13:28:42;20.10;;;16.13;;
75216;SDS011;63800;51.972;5.682;2023-06-22T13:31:08;20.20;;;16.20;;
75216;SDS011;63800;51.972;5.682;2023-06-22T13:33:33;20.38;;;16.13;;
75216;SDS011;63800;51.972;5.682;2023-06-22T13:35:59;22.55;;;17.23;;
75216;SDS011;63800;51.972;5.682;2023-06-22T13:38:24;21.85;;;16.95;;
75216;SDS011;63800;51.972;5.682;2023-06-22T13:40:50;22.35;;;17.17;;
75216;SDS011;63800;51.972;5.682;2023-06-22T13:43:16;21.17;;;17.45;;
75216;SDS011;63800;51.972;5.682;2023-06-22T13:45:41;22.88;;;17.33;;
75216;SDS011;63800;51.972;5.682;2023-06-22T13:48:08;23.35;;;17.48;;
75216;SDS011;63800;51.972;5.682;2023-06-22T13:50:33;27.13;;;18.90;;
75216;SDS011;63800;51.972;5.682;2023-06-22T13:52:59;22.65;;;17.73;;
75216;SDS011;63800;51.972;5.682;2023-06-22T13:55:24;24.02;;;16.83;;
75216;SDS011;63800;51.972;5.682;2023-06-22T13:57:51;22.73;;;18.05;;
75216;SDS011;63800;51.972;5.682;2023-06-22T14:00:17;27.17;;;18.08;;
75216;SDS011;63800;51.972;5.682;2023-06-22T14:02:42;24.08;;;17.88;;
75216;SDS011;63800;51.972;5.682;2023-06-22T14:05:08;25.83;;;19.08;;
75216;SDS011;63800;51.972;5.682;2023-06-22T14:07:34;27.92;;;18.30;;
75216;SDS011;63800;51.972;5.682;2023-06-22T14:10:00;24.90;;;18.52;;
75216;SDS011;63800;51.972;5.682;2023-06-22T14:12:26;25.88;;;19.00;;
75216;SDS011;63800;51.972;5.682;2023-06-22T14:14:51;25.67;;;18.40;;
75216;SDS011;63800;51.972;5.682;2023-06-22T14:17:17;25.05;;;19.00;;
75216;SDS011;63800;51.972;5.682;2023-06-22T14:19:48;25.20;;;19.67;;
75216;SDS011;63800;51.972;5.682;2023-06-22T14:22:14;26.35;;;19.83;;
75216;SDS011;63800;51.972;5.682;2023-06-22T14:24:39;25.38;;;19.75;;
75216;SDS011;63800;51.972;5.682;2023-06-22T14:27:05;25.48;;;19.15;;
75216;SDS011;63800;51.972;5.682;2023-06-22T14:29:32;27.02;;;18.15;;
75216;SDS011;63800;51.972;5.682;2023-06-22T14:31:58;27.70;;;19.00;;
75216;SDS011;63800;51.972;5.682;2023-06-22T14:34:24;24.45;;;18.52;;
75216;SDS011;63800;51.972;5.682;2023-06-22T14:36:49;26.58;;;18.73;;
75216;SDS011;63800;51.972;5.682;2023-06-22T14:39:15;24.17;;;17.27;;